Hlavní strana
METAR-TAF:

METAR-TAF

Letiště :

Olney-Noble Airport

Olney-Noble, Illinois, Spojené státy americké

zeměpisná šířka: 38-43-19N, zeměpisná délka: 088-10-35W, výška: 147 m

Aktuální stav počasí

Zpráva byla vytvořena před 25 minutami, v 18:15 UTC
Severoseverozápadní vítr 12 kt s nárazy do 19 kt
Teplota 7°C
Vlhkost vzduchu 81%
Tlak 1023 hPa
Viditelnost: 16.1 km
Oblačno až skoro zataženo ve výšce 1600 ft

METAR: KOLY 181815Z AUTO 34012G19KT 10SM BKN016 07/04 A3022 RMK AO2 T00660035

Čas: 12:40 (18:40 UTC)


TAF: chybějící

Stav a předpovědi počasí z více než 4 000 letišť (zprávy METAR a TAF).

Červené a žluté tečky na mapě představují dostupné meteorologické stanice.

Když kurzor umístíte na tečku, zobrazí se název stanice.

Pak kliknutím zobrazíte stav a předpověď počasí.

Chcete-li změnit mapu, kliknutím na zelené tlačítko se znaménkem +mapu přiblížíte, kliknutím na zelené tlačítko se znaménkem – mapu oddálíte a kliknutím na zelené šipky přejdete na sousední mapy.


METAR-TAF: